Time;durP1;ratioP1;P1;durP2;ratioP2;P2;SDS_P1;SDS_P2;PMS_P1;PMS_P2;Temp;Humidity;BMP_temperature;BMP_pressure;BME280_temperature;BME280_humidity;BME280_pressure;Samples;Min_cycle;Max_cycle;Signal;HPM_P1;HPM_P2
2022/11/18 00:01:15;;;;;;;;;;;9.40;99.90;;;;;;5067055;28;19921;-80
2022/11/18 00:03:41;;;;;;;;;;;9.30;99.90;;;;;;5070297;28;19917;-80
2022/11/18 00:06:10;;;;;;;;;;;9.30;99.90;;;;;;5071301;28;19931;-80
2022/11/18 00:08:35;;;;;;;;;;;9.20;99.90;;;;;;5070527;28;19924;-79
2022/11/18 00:11:05;;;;;;;;;;;9.20;99.90;;;;;;5071336;28;19913;-79
2022/11/18 00:16:14;;;;;;;;;;;9.20;99.90;;;;;;5070728;28;19970;-78
2022/11/18 00:18:40;;;;;;;;;;;9.10;99.90;;;;;;5068511;28;19921;-79
2022/11/18 00:21:07;;;;;;;;;;;9.10;99.90;;;;;;5070031;28;19927;-79
2022/11/18 00:23:32;;;;;;;;;;;9.10;99.90;;;;;;5069268;28;19959;-80
2022/11/18 00:26:01;;;;;;;;;;;9.10;99.90;;;;;;5071498;28;19917;-80
2022/11/18 00:28:27;;;;;;;;;;;9.10;99.90;;;;;;5070409;28;19917;-80
2022/11/18 00:30:52;;;;;;;;;;;9.10;99.90;;;;;;5071363;28;19923;-79
2022/11/18 00:33:18;;;;;;;;;;;9.00;99.90;;;;;;5067500;28;19917;-80
2022/11/18 00:35:51;;;;;;;;;;;9.00;99.90;;;;;;5070579;28;19916;-78
2022/11/18 00:38:17;;;;;;;;;;;9.00;99.90;;;;;;5066908;28;19920;-79
2022/11/18 00:40:43;;;;;;;;;;;9.00;99.90;;;;;;5068321;28;19931;-80
2022/11/18 00:43:08;;;;;;;;;;;9.00;99.90;;;;;;5068812;28;19939;-79
2022/11/18 00:45:34;;;;;;;;;;;9.00;99.90;;;;;;5065619;28;19917;-79
2022/11/18 00:47:59;;;;;;;;;;;9.10;99.90;;;;;;5070660;28;19924;-78
2022/11/18 00:50:25;;;;;;;;;;;9.40;99.90;;;;;;5070981;28;19916;-80
2022/11/18 00:52:51;;;;;;;;;;;9.50;99.90;;;;;;5067510;28;19971;-80
2022/11/18 00:55:17;;;;;;;;;;;9.60;99.90;;;;;;5071560;28;20027;-79
2022/11/18 00:57:42;;;;;;;;;;;9.50;99.90;;;;;;5069972;28;19956;-79
2022/11/18 01:00:08;;;;;;;;;;;9.50;99.90;;;;;;5068998;28;19920;-80
2022/11/18 01:02:34;;;;;;;;;;;9.50;99.90;;;;;;5068431;28;19917;-80
2022/11/18 01:04:59;;;;;;;;;;;9.40;99.90;;;;;;5068944;28;19916;-80
2022/11/18 01:07:25;;;;;;;;;;;9.50;99.90;;;;;;5067255;28;20018;-80
2022/11/18 01:09:50;;;;;;;;;;;9.50;99.90;;;;;;5073229;28;19948;-80
2022/11/18 01:15:00;;;;;;;;;;;9.30;99.90;;;;;;5067058;28;19962;-79
2022/11/18 01:17:28;;;;;;;;;;;9.30;99.90;;;;;;5068084;28;19920;-80
2022/11/18 01:19:54;;;;;;;;;;;9.20;99.90;;;;;;5063916;28;19920;-79
2022/11/18 01:22:19;;;;;;;;;;;9.30;99.90;;;;;;5070034;28;19930;-79
2022/11/18 01:24:45;;;;;;;;;;;9.40;99.90;;;;;;5069070;28;19951;-78
2022/11/18 01:27:10;;;;;;;;;;;9.40;99.90;;;;;;5068198;28;19916;-80
2022/11/18 01:29:36;;;;;;;;;;;9.40;99.90;;;;;;5069682;28;19920;-79
2022/11/18 01:32:01;;;;;;;;;;;9.30;99.90;;;;;;5062740;28;19966;-78
2022/11/18 01:34:28;;;;;;;;;;;9.20;99.90;;;;;;5069604;28;19938;-79
2022/11/18 01:36:55;;;;;;;;;;;9.20;99.90;;;;;;5068455;28;19916;-80
2022/11/18 01:39:21;;;;;;;;;;;9.20;99.90;;;;;;5064644;28;20291;-79
2022/11/18 01:41:46;;;;;;;;;;;9.20;99.90;;;;;;5065887;28;20037;-78
2022/11/18 01:44:31;;;;;;;;;;;9.30;99.90;;;;;;5069008;28;19916;-78
2022/11/18 01:46:56;;;;;;;;;;;9.40;99.90;;;;;;5055444;28;19920;-78
2022/11/18 01:49:22;;;;;;;;;;;9.40;99.90;;;;;;5069461;28;19916;-78
2022/11/18 01:51:49;;;;;;;;;;;9.30;99.90;;;;;;5060814;28;19923;-79
2022/11/18 01:54:18;;;;;;;;;;;9.20;99.90;;;;;;5066092;28;19917;-79
2022/11/18 01:56:45;;;;;;;;;;;9.10;99.90;;;;;;5067904;28;20427;-78
2022/11/18 01:59:12;;;;;;;;;;;9.00;99.90;;;;;;5068757;28;19931;-78
2022/11/18 02:01:38;;;;;;;;;;;9.00;99.90;;;;;;5068913;28;20401;-78
2022/11/18 02:04:04;;;;;;;;;;;9.10;99.90;;;;;;5069856;28;19965;-79
2022/11/18 02:06:30;;;;;;;;;;;9.20;99.90;;;;;;5069601;28;20692;-78
2022/11/18 02:08:56;;;;;;;;;;;9.40;99.90;;;;;;5067457;28;19916;-78
2022/11/18 02:14:07;;;;;;;;;;;9.60;99.90;;;;;;5070101;28;19962;-78
2022/11/18 02:16:50;;;;;;;;;;;9.60;99.90;;;;;;5069805;28;19967;-78
2022/11/18 02:19:39;;;;;;;;;;;9.60;99.90;;;;;;5067966;28;19920;-78
2022/11/18 02:22:28;;;;;;;;;;;9.60;99.90;;;;;;5066742;28;20010;-78
2022/11/18 02:25:12;;;;;;;;;;;9.60;99.90;;;;;;5054762;28;20003;-78
2022/11/18 02:27:53;;;;;;;;;;;9.50;99.90;;;;;;5068418;28;19916;-79
2022/11/18 02:30:18;;;;;;;;;;;9.60;99.90;;;;;;5068282;28;19959;-78
2022/11/18 02:32:44;;;;;;;;;;;9.70;99.90;;;;;;5068958;28;19955;-78
2022/11/18 02:35:21;;;;;;;;;;;9.70;99.90;;;;;;5067398;28;20241;-79
2022/11/18 02:37:49;;;;;;;;;;;9.60;99.90;;;;;;5063177;28;19955;-78
2022/11/18 02:40:27;;;;;;;;;;;9.70;99.90;;;;;;5067589;28;19920;-79
2022/11/18 02:43:05;;;;;;;;;;;9.60;99.90;;;;;;5066687;28;19916;-78
2022/11/18 02:45:32;;;;;;;;;;;9.60;99.90;;;;;;5068778;28;19916;-78
2022/11/18 02:48:01;;;;;;;;;;;9.50;99.90;;;;;;5066182;28;19923;-79
2022/11/18 02:50:27;;;;;;;;;;;9.60;99.90;;;;;;5058970;28;19926;-79
2022/11/18 02:52:55;;;;;;;;;;;9.60;99.90;;;;;;5058579;28;19917;-79
2022/11/18 02:55:21;;;;;;;;;;;9.50;99.90;;;;;;5060719;28;19916;-78
2022/11/18 02:57:47;;;;;;;;;;;9.60;99.90;;;;;;5059923;28;20466;-78
2022/11/18 03:00:12;;;;;;;;;;;9.50;99.90;;;;;;5068378;28;20012;-79
2022/11/18 03:02:43;;;;;;;;;;;9.50;99.90;;;;;;5065719;28;19951;-78
2022/11/18 03:05:17;;;;;;;;;;;9.40;99.90;;;;;;5067848;28;19962;-79
2022/11/18 03:07:45;;;;;;;;;;;9.30;99.90;;;;;;5063554;28;19920;-78
2022/11/18 03:10:11;;;;;;;;;;;9.30;99.90;;;;;;5066884;28;19948;-78
2022/11/18 03:12:39;;;;;;;;;;;9.30;99.90;;;;;;5067815;28;19955;-78
2022/11/18 03:15:10;;;;;;;;;;;9.40;99.90;;;;;;5068102;28;19917;-78
2022/11/18 03:17:42;;;;;;;;;;;9.40;99.90;;;;;;5067938;28;19924;-78
2022/11/18 03:20:13;;;;;;;;;;;9.20;99.90;;;;;;5067420;28;20006;-78
2022/11/18 03:23:01;;;;;;;;;;;9.20;99.90;;;;;;5067988;28;19967;-78
2022/11/18 03:25:53;;;;;;;;;;;9.00;99.90;;;;;;5067091;28;19920;-78
2022/11/18 03:28:22;;;;;;;;;;;8.80;99.90;;;;;;5063725;28;19916;-78
2022/11/18 03:30:51;;;;;;;;;;;8.70;99.90;;;;;;5067658;28;20015;-78
2022/11/18 03:33:21;;;;;;;;;;;8.60;99.90;;;;;;5067939;28;20607;-77
2022/11/18 03:35:48;;;;;;;;;;;8.50;99.90;;;;;;5067564;28;19920;-78
2022/11/18 03:38:15;;;;;;;;;;;8.50;99.90;;;;;;5065360;28;19979;-78
2022/11/18 03:40:43;;;;;;;;;;;8.70;99.90;;;;;;5066056;28;19931;-78
2022/11/18 03:43:14;;;;;;;;;;;9.00;99.90;;;;;;5065370;28;20032;-78
2022/11/18 03:45:46;;;;;;;;;;;9.10;99.90;;;;;;5066129;28;19949;-78
2022/11/18 03:48:13;;;;;;;;;;;9.30;99.90;;;;;;5067540;28;19916;-78
2022/11/18 03:50:58;;;;;;;;;;;9.40;99.90;;;;;;5067707;28;19916;-78
2022/11/18 03:53:25;;;;;;;;;;;9.50;99.90;;;;;;5065679;28;19913;-78
2022/11/18 03:55:53;;;;;;;;;;;9.50;99.90;;;;;;5068176;28;19939;-78
2022/11/18 03:58:25;;;;;;;;;;;9.60;99.90;;;;;;5067274;28;20304;-78
2022/11/18 04:00:58;;;;;;;;;;;9.60;99.90;;;;;;5067083;28;19921;-79
2022/11/18 04:03:25;;;;;;;;;;;9.70;99.90;;;;;;5067809;28;20582;-78
2022/11/18 04:05:53;;;;;;;;;;;9.60;99.90;;;;;;5086729;28;19928;-78
2022/11/18 04:08:21;;;;;;;;;;;9.50;99.90;;;;;;5066865;28;19913;-78
2022/11/18 04:10:50;;;;;;;;;;;9.40;99.90;;;;;;5064830;28;19931;-78
2022/11/18 04:13:23;;;;;;;;;;;9.30;99.90;;;;;;5066601;28;19917;-79
2022/11/18 04:15:49;;;;;;;;;;;9.40;99.90;;;;;;5068030;28;20345;-78
2022/11/18 04:18:14;;;;;;;;;;;9.50;99.90;;;;;;5061477;28;20011;-78
2022/11/18 04:20:40;;;;;;;;;;;9.40;99.90;;;;;;5066322;28;19921;-78
2022/11/18 04:23:06;;;;;;;;;;;9.50;99.90;;;;;;5066980;28;19922;-79
2022/11/18 04:25:32;;;;;;;;;;;9.50;99.90;;;;;;5067941;28;19917;-80
2022/11/18 04:27:57;;;;;;;;;;;9.50;99.90;;;;;;5067154;28;19927;-78
2022/11/18 04:30:23;;;;;;;;;;;9.40;99.90;;;;;;5067061;28;19916;-78
2022/11/18 04:32:48;;;;;;;;;;;9.50;99.90;;;;;;5059396;28;20455;-79
2022/11/18 04:35:14;;;;;;;;;;;9.50;99.90;;;;;;5067727;28;20351;-78
2022/11/18 04:37:39;;;;;;;;;;;9.50;99.90;;;;;;5068941;28;19918;-78
2022/11/18 04:40:05;;;;;;;;;;;9.50;99.90;;;;;;5065556;28;19920;-78
2022/11/18 04:42:31;;;;;;;;;;;9.50;99.90;;;;;;5055980;28;19916;-78
2022/11/18 04:44:56;;;;;;;;;;;9.60;99.90;;;;;;5065636;28;19921;-78
2022/11/18 04:47:22;;;;;;;;;;;9.80;99.90;;;;;;5065297;28;19916;-78
2022/11/18 04:49:47;;;;;;;;;;;9.80;99.90;;;;;;5069195;28;19953;-79
2022/11/18 04:52:13;;;;;;;;;;;9.70;99.90;;;;;;5070781;28;19916;-79
2022/11/18 04:54:39;;;;;;;;;;;9.80;99.90;;;;;;5070006;28;19921;-79
2022/11/18 04:57:05;;;;;;;;;;;9.80;99.90;;;;;;5070662;28;19916;-79
2022/11/18 04:59:30;;;;;;;;;;;9.80;99.90;;;;;;5066345;28;19944;-79
2022/11/18 05:01:56;;;;;;;;;;;9.80;99.90;;;;;;5065563;28;20007;-80
2022/11/18 05:04:23;;;;;;;;;;;9.70;99.90;;;;;;5067401;28;19917;-79
2022/11/18 05:06:49;;;;;;;;;;;9.80;99.90;;;;;;5070307;28;19924;-79
2022/11/18 05:09:15;;;;;;;;;;;9.70;99.90;;;;;;5065031;28;19948;-78
2022/11/18 05:14:25;;;;;;;;;;;9.70;99.90;;;;;;5067396;28;19931;-79
2022/11/18 05:16:51;;;;;;;;;;;9.70;99.90;;;;;;5070818;28;19924;-79
2022/11/18 05:19:17;;;;;;;;;;;9.70;99.90;;;;;;5068054;28;19924;-78
2022/11/18 05:21:42;;;;;;;;;;;9.70;99.90;;;;;;5070794;28;19916;-77
2022/11/18 05:24:08;;;;;;;;;;;9.50;99.90;;;;;;5058039;28;20351;-79
2022/11/18 05:26:33;;;;;;;;;;;9.40;99.90;;;;;;5062352;28;19919;-78
2022/11/18 05:28:59;;;;;;;;;;;9.40;99.90;;;;;;5069448;28;19912;-78
2022/11/18 05:31:25;;;;;;;;;;;9.50;99.90;;;;;;5070240;28;19955;-78
2022/11/18 05:33:50;;;;;;;;;;;9.50;99.90;;;;;;5070694;28;19920;-78
2022/11/18 05:36:17;;;;;;;;;;;9.30;99.90;;;;;;5070722;28;19921;-78
2022/11/18 05:38:43;;;;;;;;;;;9.40;99.90;;;;;;5067391;28;19916;-78
2022/11/18 05:41:09;;;;;;;;;;;9.40;99.90;;;;;;5068634;28;19916;-79
2022/11/18 05:43:35;;;;;;;;;;;9.40;99.90;;;;;;5069596;28;20450;-82
2022/11/18 05:46:01;;;;;;;;;;;9.40;99.90;;;;;;5069574;28;19922;-82
2022/11/18 05:48:27;;;;;;;;;;;9.30;99.90;;;;;;5069393;28;19920;-82
2022/11/18 05:50:53;;;;;;;;;;;9.50;99.90;;;;;;5067272;28;19920;-82
2022/11/18 05:53:19;;;;;;;;;;;9.50;99.90;;;;;;5063999;28;19917;-82
2022/11/18 05:55:54;;;;;;;;;;;9.50;99.90;;;;;;5069089;28;19970;-82
2022/11/18 05:58:20;;;;;;;;;;;9.60;99.90;;;;;;5068483;28;20011;-81
2022/11/18 06:00:46;;;;;;;;;;;9.60;99.90;;;;;;5059857;28;19975;-81
2022/11/18 06:03:17;;;;;;;;;;;9.70;99.90;;;;;;5069292;28;20478;-81
2022/11/18 06:05:43;;;;;;;;;;;9.70;99.90;;;;;;5068928;28;19979;-81
2022/11/18 06:08:10;;;;;;;;;;;9.70;99.90;;;;;;5064701;28;20467;-81
2022/11/18 06:10:36;;;;;;;;;;;9.70;99.90;;;;;;5068548;28;19917;-80
2022/11/18 06:13:04;;;;;;;;;;;9.60;99.90;;;;;;5064793;28;19921;-81
2022/11/18 06:15:33;;;;;;;;;;;9.70;99.90;;;;;;5066755;28;19923;-81
2022/11/18 06:18:16;;;;;;;;;;;9.70;99.90;;;;;;5058824;28;19916;-82
2022/11/18 06:20:42;;;;;;;;;;;9.70;99.90;;;;;;5072987;28;20381;-82
2022/11/18 06:23:07;;;;;;;;;;;9.70;99.90;;;;;;5083354;28;19920;-81
2022/11/18 06:25:36;;;;;;;;;;;9.70;99.90;;;;;;5068649;28;19920;-84
2022/11/18 06:28:02;;;;;;;;;;;9.70;99.90;;;;;;5068762;28;19920;-83
2022/11/18 06:30:27;;;;;;;;;;;9.70;99.90;;;;;;5068444;28;20426;-83
2022/11/18 06:32:53;;;;;;;;;;;9.70;99.90;;;;;;5077852;28;19921;-82
2022/11/18 06:35:18;;;;;;;;;;;9.70;99.90;;;;;;5049873;28;20734;-82
2022/11/18 06:37:45;;;;;;;;;;;9.70;99.90;;;;;;5064878;28;19912;-83
2022/11/18 06:40:11;;;;;;;;;;;9.60;99.90;;;;;;5082446;28;19999;-81
2022/11/18 06:45:21;;;;;;;;;;;9.50;99.90;;;;;;5063968;28;20063;-85
2022/11/18 06:47:46;;;;;;;;;;;9.50;99.90;;;;;;5068601;28;20031;-83
2022/11/18 06:50:12;;;;;;;;;;;9.50;99.90;;;;;;5069242;28;19916;-82
2022/11/18 06:52:37;;;;;;;;;;;9.50;99.90;;;;;;5065000;28;20022;-80
2022/11/18 06:55:06;;;;;;;;;;;9.50;99.90;;;;;;5057129;28;19921;-81
2022/11/18 06:57:31;;;;;;;;;;;9.50;99.90;;;;;;5068346;28;19916;-80
2022/11/18 06:59:57;;;;;;;;;;;9.40;99.90;;;;;;5066813;28;20330;-83
2022/11/18 07:02:22;;;;;;;;;;;9.30;99.90;;;;;;5078312;28;19947;-79
2022/11/18 07:04:48;;;;;;;;;;;9.40;99.90;;;;;;5069175;28;19951;-80
2022/11/18 07:07:13;;;;;;;;;;;9.20;99.90;;;;;;5066601;28;19983;-81
2022/11/18 07:09:39;;;;;;;;;;;9.20;99.90;;;;;;5067362;28;19932;-80
2022/11/18 07:12:04;;;;;;;;;;;9.30;99.90;;;;;;5069723;28;20608;-79
2022/11/18 07:14:30;;;;;;;;;;;9.30;99.90;;;;;;5067717;28;19920;-80
2022/11/18 07:16:56;;;;;;;;;;;9.20;99.90;;;;;;5066832;28;20414;-80
2022/11/18 07:19:21;;;;;;;;;;;9.30;99.90;;;;;;5068254;28;20638;-79
2022/11/18 07:21:47;;;;;;;;;;;9.30;99.90;;;;;;5067995;28;19917;-81
2022/11/18 07:24:13;;;;;;;;;;;9.10;99.90;;;;;;5072327;28;19924;-80
2022/11/18 07:26:39;;;;;;;;;;;9.20;99.90;;;;;;5068126;28;19923;-80
2022/11/18 07:29:05;;;;;;;;;;;9.30;99.90;;;;;;5066433;28;19916;-81
2022/11/18 07:31:31;;;;;;;;;;;9.40;99.90;;;;;;5067709;28;21286;-80
2022/11/18 07:33:57;;;;;;;;;;;9.50;99.90;;;;;;5066464;28;19920;-80
2022/11/18 07:36:24;;;;;;;;;;;9.80;99.90;;;;;;5063751;28;19956;-80
2022/11/18 07:38:50;;;;;;;;;;;9.90;99.90;;;;;;5066159;28;19939;-79
2022/11/18 07:41:17;;;;;;;;;;;10.00;99.90;;;;;;5066954;28;19917;-79
2022/11/18 07:43:43;;;;;;;;;;;9.70;99.90;;;;;;5066227;28;20470;-81
2022/11/18 07:46:12;;;;;;;;;;;9.80;99.90;;;;;;5068402;28;19923;-80
2022/11/18 07:48:38;;;;;;;;;;;9.70;99.90;;;;;;5066539;28;19917;-81
2022/11/18 07:51:04;;;;;;;;;;;9.70;99.90;;;;;;5063622;28;19926;-82
2022/11/18 07:53:30;;;;;;;;;;;9.60;99.90;;;;;;5061158;28;19917;-81
2022/11/18 07:55:56;;;;;;;;;;;9.70;99.90;;;;;;5065548;28;20360;-82
2022/11/18 07:58:21;;;;;;;;;;;9.70;99.90;;;;;;5066944;28;20003;-82
2022/11/18 08:00:47;;;;;;;;;;;9.80;99.90;;;;;;5067335;28;19974;-81
2022/11/18 08:03:13;;;;;;;;;;;10.00;99.90;;;;;;5067535;28;19916;-82
2022/11/18 08:05:38;;;;;;;;;;;10.00;99.90;;;;;;5067356;28;19924;-81
2022/11/18 08:08:04;;;;;;;;;;;10.00;99.90;;;;;;5061178;28;19927;-81
2022/11/18 08:10:29;;;;;;;;;;;10.00;99.90;;;;;;5065345;28;19912;-81
2022/11/18 08:12:55;;;;;;;;;;;10.00;99.90;;;;;;5067204;28;19917;-82
2022/11/18 08:15:20;;;;;;;;;;;10.10;99.90;;;;;;5067613;28;19916;-82
2022/11/18 08:17:47;;;;;;;;;;;10.10;99.90;;;;;;5065836;28;19959;-82
2022/11/18 08:20:12;;;;;;;;;;;10.10;99.90;;;;;;5063835;28;19920;-82
2022/11/18 08:22:38;;;;;;;;;;;10.00;99.90;;;;;;5062778;28;20402;-81
2022/11/18 08:25:04;;;;;;;;;;;9.90;99.90;;;;;;5067891;28;19912;-81
2022/11/18 08:27:30;;;;;;;;;;;9.90;99.90;;;;;;5093406;28;19923;-82
2022/11/18 08:29:56;;;;;;;;;;;10.00;99.90;;;;;;5065326;28;19950;-81
2022/11/18 08:32:21;;;;;;;;;;;9.80;99.90;;;;;;5067463;28;20033;-81
2022/11/18 08:34:47;;;;;;;;;;;9.90;99.90;;;;;;5064696;28;19993;-82
2022/11/18 08:37:12;;;;;;;;;;;9.90;99.90;;;;;;5064989;28;19912;-82
2022/11/18 08:39:38;;;;;;;;;;;10.10;99.90;;;;;;5063356;28;19928;-82
2022/11/18 08:42:03;;;;;;;;;;;10.10;99.90;;;;;;5062956;28;19916;-82
2022/11/18 08:44:32;;;;;;;;;;;10.10;99.90;;;;;;5070439;28;20023;-83
2022/11/18 08:46:57;;;;;;;;;;;10.10;99.90;;;;;;5068982;28;19920;-82
2022/11/18 08:49:23;;;;;;;;;;;10.30;99.90;;;;;;5065189;28;19912;-81
2022/11/18 08:51:48;;;;;;;;;;;10.30;99.90;;;;;;5066909;28;20007;-81
2022/11/18 08:54:14;;;;;;;;;;;10.40;99.90;;;;;;5063721;28;19916;-82
2022/11/18 08:56:39;;;;;;;;;;;10.30;99.90;;;;;;5069699;28;19912;-82
2022/11/18 08:59:05;;;;;;;;;;;10.20;99.90;;;;;;5061721;28;19928;-81
2022/11/18 09:01:31;;;;;;;;;;;10.40;99.90;;;;;;5063202;28;19920;-82
2022/11/18 09:03:56;;;;;;;;;;;10.40;99.90;;;;;;5068740;28;19920;-82
2022/11/18 09:06:23;;;;;;;;;;;10.30;99.90;;;;;;5065824;28;19967;-81
2022/11/18 09:08:49;;;;;;;;;;;10.10;99.90;;;;;;5064386;28;19923;-82
2022/11/18 09:11:19;;;;;;;;;;;10.10;99.90;;;;;;5068754;28;20737;-83
2022/11/18 09:14:03;;;;;;;;;;;;;;;;;;;;;
2022/11/18 09:16:51;;;;;;;;;;;10.00;99.90;;;;;;5062942;28;20295;-84
2022/11/18 09:19:18;;;;;;;;;;;10.00;99.90;;;;;;5069665;28;19973;-85
2022/11/18 09:21:52;;;;;;;;;;;10.20;99.90;;;;;;5066620;28;20665;-85
2022/11/18 09:24:20;;;;;;;;;;;10.40;99.90;;;;;;5070468;28;19920;-85
2022/11/18 09:26:46;;;;;;;;;;;10.40;99.90;;;;;;5058590;28;19989;-84
2022/11/18 09:29:12;;;;;;;;;;;10.40;99.90;;;;;;5065886;28;19916;-84
2022/11/18 09:31:45;;;;;;;;;;;10.40;99.90;;;;;;5065945;28;20447;-84
2022/11/18 09:34:11;;;;;;;;;;;10.60;99.90;;;;;;5066993;28;20032;-84
2022/11/18 09:36:36;;;;;;;;;;;10.40;99.90;;;;;;5066644;28;19995;-84
2022/11/18 09:39:04;;;;;;;;;;;10.10;99.90;;;;;;5066138;28;19980;-84
2022/11/18 09:41:37;;;;;;;;;;;10.00;99.90;;;;;;5063079;28;20299;-84
2022/11/18 09:44:29;;;;;;;;;;;10.00;99.90;;;;;;5065210;28;19917;-84
2022/11/18 09:46:55;;;;;;;;;;;10.00;99.90;;;;;;5060069;28;19920;-85
2022/11/18 09:49:20;;;;;;;;;;;10.50;99.90;;;;;;5067552;28;19923;-84
2022/11/18 09:51:47;;;;;;;;;;;10.70;99.90;;;;;;5069165;28;19917;-84
2022/11/18 09:54:23;;;;;;;;;;;10.50;99.90;;;;;;5069410;28;19919;-84
2022/11/18 09:56:50;;;;;;;;;;;10.70;99.90;;;;;;5052690;28;19916;-84
2022/11/18 09:59:17;;;;;;;;;;;10.60;99.90;;;;;;5073903;28;19924;-84
2022/11/18 10:01:43;;;;;;;;;;;10.50;99.90;;;;;;5066187;28;19926;-83
2022/11/18 10:04:16;;;;;;;;;;;10.50;99.90;;;;;;5073061;28;20584;-83
2022/11/18 10:06:42;;;;;;;;;;;10.40;99.90;;;;;;5055678;28;19925;-84
2022/11/18 10:09:18;;;;;;;;;;;10.40;99.90;;;;;;5058368;28;19917;-83
2022/11/18 10:11:53;;;;;;;;;;;10.60;99.90;;;;;;5061874;28;19951;-84
2022/11/18 10:14:18;;;;;;;;;;;10.50;99.90;;;;;;5065033;28;19916;-84
2022/11/18 10:16:53;;;;;;;;;;;10.40;99.90;;;;;;5066876;28;19927;-83
2022/11/18 10:19:37;;;;;;;;;;;10.20;99.90;;;;;;5069860;28;20382;-83
2022/11/18 10:22:18;;;;;;;;;;;10.30;99.90;;;;;;5054995;28;19919;-84
2022/11/18 10:24:51;;;;;;;;;;;10.20;99.90;;;;;;5067460;28;19970;-84
2022/11/18 10:27:17;;;;;;;;;;;10.40;99.90;;;;;;5062664;28;19923;-83
2022/11/18 10:29:43;;;;;;;;;;;10.50;99.90;;;;;;5067752;28;19923;-84
2022/11/18 10:32:13;;;;;;;;;;;10.60;99.90;;;;;;5068558;28;19920;-83
2022/11/18 10:34:49;;;;;;;;;;;10.80;99.90;;;;;;5061524;28;19917;-84
2022/11/18 10:37:21;;;;;;;;;;;10.70;99.90;;;;;;5053583;28;19938;-84
2022/11/18 10:39:51;;;;;;;;;;;10.70;99.90;;;;;;5074815;28;20263;-83
2022/11/18 10:42:43;;;;;;;;;;;10.70;99.90;;;;;;5059615;28;19920;-84
2022/11/18 10:45:23;;;;;;;;;;;10.50;99.90;;;;;;5072412;28;19926;-84
2022/11/18 10:48:07;;;;;;;;;;;10.90;99.90;;;;;;5057375;28;19917;-84
2022/11/18 10:50:34;;;;;;;;;;;10.90;99.90;;;;;;5067731;28;19916;-83
2022/11/18 10:53:00;;;;;;;;;;;10.80;99.90;;;;;;5062491;28;19916;-84
2022/11/18 10:55:26;;;;;;;;;;;10.90;99.90;;;;;;5067013;28;19916;-83
2022/11/18 10:58:15;;;;;;;;;;;11.40;99.90;;;;;;5063072;28;19956;-83
2022/11/18 11:00:42;;;;;;;;;;;11.70;99.90;;;;;;5062156;28;19928;-83
2022/11/18 11:03:46;;;;;;;;;;;12.20;99.90;;;;;;5065368;28;19928;-84
2022/11/18 11:06:17;;;;;;;;;;;12.60;99.90;;;;;;4987091;28;19925;-83
2022/11/18 11:08:53;;;;;;;;;;;12.90;99.90;;;;;;4991003;28;19918;-81
2022/11/18 11:11:27;;;;;;;;;;;12.40;99.90;;;;;;5033503;28;19916;-82
2022/11/18 11:13:54;;;;;;;;;;;12.60;99.90;;;;;;5066365;28;19916;-81
2022/11/18 11:16:20;;;;;;;;;;;12.60;99.90;;;;;;5059347;28;19924;-81
2022/11/18 11:18:51;;;;;;;;;;;12.50;99.90;;;;;;5061977;28;19917;-81
2022/11/18 11:21:18;;;;;;;;;;;12.50;99.90;;;;;;5065243;28;20489;-81
2022/11/18 11:23:43;;;;;;;;;;;12.50;99.90;;;;;;5061518;28;19924;-80
2022/11/18 11:26:15;;;;;;;;;;;12.30;99.90;;;;;;5064983;28;19912;-81
2022/11/18 11:28:59;;;;;;;;;;;12.20;99.90;;;;;;5065342;28;19924;-81
2022/11/18 11:31:44;;;;;;;;;;;12.30;99.90;;;;;;5067516;28;20924;-81
2022/11/18 11:34:27;;;;;;;;;;;12.30;99.90;;;;;;5068358;28;20364;-82
2022/11/18 11:37:19;;;;;;;;;;;12.20;99.90;;;;;;5063393;28;20686;-80
2022/11/18 11:39:59;;;;;;;;;;;12.20;99.90;;;;;;5034928;28;19921;-82
2022/11/18 11:42:41;;;;;;;;;;;12.20;99.90;;;;;;5081240;28;20000;-82
2022/11/18 11:45:10;;;;;;;;;;;12.30;99.90;;;;;;5061936;28;19921;-81
2022/11/18 11:47:56;;;;;;;;;;;11.90;99.90;;;;;;5063207;28;19958;-81
2022/11/18 11:50:30;;;;;;;;;;;11.80;99.90;;;;;;5060442;28;20287;-83
2022/11/18 11:53:19;;;;;;;;;;;11.80;99.90;;;;;;5056508;28;20447;-80
2022/11/18 11:56:08;;;;;;;;;;;12.00;99.90;;;;;;5054201;28;20265;-83
2022/11/18 11:58:41;;;;;;;;;;;11.90;99.90;;;;;;5066185;28;19917;-80
2022/11/18 12:01:09;;;;;;;;;;;11.90;99.90;;;;;;5066062;28;20009;-81
2022/11/18 12:03:49;;;;;;;;;;;11.90;99.90;;;;;;5064551;28;19913;-80
2022/11/18 12:06:15;;;;;;;;;;;12.00;99.90;;;;;;5061450;28;20062;-82
2022/11/18 12:08:48;;;;;;;;;;;11.90;99.90;;;;;;5058349;28;19992;-81
2022/11/18 12:11:20;;;;;;;;;;;12.10;99.90;;;;;;5065753;28;20501;-80
2022/11/18 12:13:52;;;;;;;;;;;12.10;99.90;;;;;;5062260;28;19997;-81
2022/11/18 12:16:21;;;;;;;;;;;12.30;99.90;;;;;;5067877;28;19916;-80
2022/11/18 12:18:50;;;;;;;;;;;12.60;99.90;;;;;;5059639;28;19935;-80
2022/11/18 12:21:34;;;;;;;;;;;12.70;99.90;;;;;;5064473;28;19916;-80
2022/11/18 12:24:19;;;;;;;;;;;12.90;99.90;;;;;;5083250;28;19919;-79
2022/11/18 12:26:45;;;;;;;;;;;13.20;99.90;;;;;;5052834;28;19920;-79
2022/11/18 12:29:17;;;;;;;;;;;13.00;99.90;;;;;;5056269;28;19920;-79
2022/11/18 12:31:43;;;;;;;;;;;12.80;99.90;;;;;;5067680;28;19991;-80
2022/11/18 12:34:29;;;;;;;;;;;12.40;99.90;;;;;;5059014;28;20732;-79
2022/11/18 12:36:55;;;;;;;;;;;12.20;99.90;;;;;;5065493;28;19916;-80
2022/11/18 12:39:24;;;;;;;;;;;12.20;99.90;;;;;;5064820;28;19921;-80
2022/11/18 12:44:34;;;;;;;;;;;12.00;99.90;;;;;;5065918;28;19923;-80
2022/11/18 12:47:00;;;;;;;;;;;12.10;99.90;;;;;;5064819;28;19925;-80
2022/11/18 12:49:25;;;;;;;;;;;12.10;99.90;;;;;;5065833;28;20483;-80
2022/11/18 12:51:52;;;;;;;;;;;12.00;99.90;;;;;;5055495;28;19944;-79
2022/11/18 12:54:20;;;;;;;;;;;12.20;99.90;;;;;;5062524;28;19913;-80
2022/11/18 12:56:47;;;;;;;;;;;12.20;99.90;;;;;;5060391;28;20312;-80
2022/11/18 12:59:12;;;;;;;;;;;12.20;99.90;;;;;;5061297;28;19928;-80
2022/11/18 13:01:38;;;;;;;;;;;12.20;99.90;;;;;;5054128;28;19916;-80
2022/11/18 13:04:18;;;;;;;;;;;12.10;99.90;;;;;;5064488;28;19916;-79
2022/11/18 13:06:44;;;;;;;;;;;12.30;99.90;;;;;;5051478;28;19963;-79
2022/11/18 13:09:14;;;;;;;;;;;12.50;99.90;;;;;;5062797;28;20474;-80
2022/11/18 13:11:45;;;;;;;;;;;12.80;99.90;;;;;;5062076;28;19909;-79
2022/11/18 13:19:54;;;;;;;;;;;12.90;99.90;;;;;;5060609;28;19992;-79
2022/11/18 13:25:19;;;;;;;;;;;12.50;99.90;;;;;;5056485;28;19915;-80
2022/11/18 13:27:48;;;;;;;;;;;12.30;99.90;;;;;;5064870;28;19913;-79
2022/11/18 13:30:14;;;;;;;;;;;12.20;99.90;;;;;;5056987;28;19934;-80
2022/11/18 13:32:44;;;;;;;;;;;11.90;99.90;;;;;;5063825;28;20406;-80
2022/11/18 13:35:12;;;;;;;;;;;11.80;99.90;;;;;;5057781;28;19920;-80
2022/11/18 13:37:47;;;;;;;;;;;11.80;99.90;;;;;;5059461;28;19921;-80
2022/11/18 13:40:20;;;;;;;;;;;11.60;99.90;;;;;;5066867;28;19967;-81
2022/11/18 13:42:45;;;;;;;;;;;11.50;99.90;;;;;;5062529;28;19917;-80
2022/11/18 13:45:12;;;;;;;;;;;11.40;99.90;;;;;;5064966;28;20697;-81
2022/11/18 13:47:49;;;;;;;;;;;11.40;99.90;;;;;;5065132;28;20778;-82
2022/11/18 13:50:18;;;;;;;;;;;11.30;99.90;;;;;;5057568;28;19909;-83
2022/11/18 13:52:48;;;;;;;;;;;11.30;99.90;;;;;;5068603;28;20280;-83
2022/11/18 13:55:21;;;;;;;;;;;11.10;99.90;;;;;;5061986;28;20489;-84
2022/11/18 13:58:07;;;;;;;;;;;11.10;99.90;;;;;;5066197;28;19948;-85
2022/11/18 14:00:34;;;;;;;;;;;11.00;99.90;;;;;;5029681;28;20290;-84
2022/11/18 14:03:01;;;;;;;;;;;10.90;99.90;;;;;;5067680;28;19912;-84
2022/11/18 14:05:27;;;;;;;;;;;11.10;99.90;;;;;;5060576;28;19923;-84
2022/11/18 14:08:05;;;;;;;;;;;11.10;99.90;;;;;;5062063;28;19917;-84
2022/11/18 14:10:37;;;;;;;;;;;11.00;99.90;;;;;;5063337;28;19916;-84
2022/11/18 14:13:11;;;;;;;;;;;10.90;99.90;;;;;;5068432;28;19919;-84
2022/11/18 14:15:37;;;;;;;;;;;10.80;99.90;;;;;;5068137;28;20011;-85
2022/11/18 14:18:03;;;;;;;;;;;10.60;99.90;;;;;;5063731;28;20010;-84
2022/11/18 14:20:31;;;;;;;;;;;10.40;99.90;;;;;;5067409;28;19923;-84
2022/11/18 14:23:01;;;;;;;;;;;10.30;99.90;;;;;;5068063;28;20383;-84
2022/11/18 14:25:29;;;;;;;;;;;10.20;99.90;;;;;;5068051;28;19924;-84
2022/11/18 14:27:56;;;;;;;;;;;10.10;99.90;;;;;;5069570;28;19913;-84
2022/11/18 14:30:30;;;;;;;;;;;10.20;99.90;;;;;;5067321;28;19965;-84
2022/11/18 14:33:04;;;;;;;;;;;10.40;99.90;;;;;;5066997;28;19916;-83
2022/11/18 14:35:30;;;;;;;;;;;10.50;99.90;;;;;;5067233;28;19962;-83
2022/11/18 14:37:56;;;;;;;;;;;10.70;99.90;;;;;;5065607;28;19912;-84
2022/11/18 14:40:21;;;;;;;;;;;10.70;99.90;;;;;;5066242;28;19927;-83
2022/11/18 14:42:47;;;;;;;;;;;10.80;99.90;;;;;;5065797;28;20030;-83
2022/11/18 14:45:12;;;;;;;;;;;10.70;99.90;;;;;;5069052;28;19924;-83
2022/11/18 14:47:39;;;;;;;;;;;10.70;99.90;;;;;;5068153;28;19918;-83
2022/11/18 14:50:10;;;;;;;;;;;10.80;99.90;;;;;;5067465;28;19923;-82
2022/11/18 14:52:36;;;;;;;;;;;10.80;99.90;;;;;;5067390;28;19920;-83
2022/11/18 14:55:02;;;;;;;;;;;10.90;99.90;;;;;;5067046;28;19946;-83
2022/11/18 14:57:27;;;;;;;;;;;10.70;99.90;;;;;;5066441;28;19927;-82
2022/11/18 14:59:53;;;;;;;;;;;10.50;99.90;;;;;;5067281;28;20003;-82
2022/11/18 15:02:19;;;;;;;;;;;10.60;99.90;;;;;;5068792;28;19916;-82